Time;durP1;ratioP1;P1;durP2;ratioP2;P2;SDS_P1;SDS_P2;PMS_P1;PMS_P2;Temp;Humidity;BMP_temperature;BMP_pressure;BME280_temperature;BME280_humidity;BME280_pressure;Samples;Min_cycle;Max_cycle;Signal;HPM_P1;HPM_P2
2023/12/08 00:00:45;;;;;;;18.15;11.90;;;;;;;;;;5030717;28;20512;-70
2023/12/08 00:03:13;;;;;;;16.80;11.30;;;;;;;;;;5037493;28;20429;-69
2023/12/08 00:05:40;;;;;;;18.30;12.05;;;;;;;;;;5042367;28;20488;-70
2023/12/08 00:08:08;;;;;;;16.70;11.27;;;;;;;;;;5037396;28;20488;-70
2023/12/08 00:10:37;;;;;;;17.73;11.02;;;;;;;;;;5044876;28;22010;-70
2023/12/08 00:13:04;;;;;;;15.85;10.77;;;;;;;;;;5051252;28;20428;-70
2023/12/08 00:15:31;;;;;;;14.82;10.70;;;;;;;;;;5050402;28;20468;-70
2023/12/08 00:17:58;;;;;;;15.38;10.82;;;;;;;;;;5045954;28;20436;-70
2023/12/08 00:20:25;;;;;;;16.90;11.55;;;;;;;;;;5045741;28;20510;-69
2023/12/08 00:22:53;;;;;;;15.37;10.60;;;;;;;;;;5049272;28;20436;-70
2023/12/08 00:25:20;;;;;;;18.60;11.60;;;;;;;;;;5061465;28;20478;-70
2023/12/08 00:27:47;;;;;;;16.45;11.15;;;;;;;;;;5054156;28;20428;-69
2023/12/08 00:30:14;;;;;;;15.13;10.57;;;;;;;;;;5050126;28;20676;-69
2023/12/08 00:32:42;;;;;;;14.93;10.85;;;;;;;;;;5047918;28;20425;-70
2023/12/08 00:35:09;;;;;;;17.30;10.82;;;;;;;;;;5033902;28;20427;-69
2023/12/08 00:37:36;;;;;;;18.17;11.50;;;;;;;;;;5030527;28;20514;-69
2023/12/08 00:40:05;;;;;;;15.63;10.90;;;;;;;;;;5029578;28;20456;-69
2023/12/08 00:42:32;;;;;;;15.77;11.20;;;;;;;;;;5051621;28;20431;-69
2023/12/08 00:44:59;;;;;;;15.68;11.00;;;;;;;;;;5051505;28;20942;-69
2023/12/08 00:47:27;;;;;;;16.45;11.50;;;;;;;;;;5047154;28;20429;-69
2023/12/08 00:49:54;;;;;;;17.20;11.50;;;;;;;;;;5023540;28;20429;-70
2023/12/08 00:52:22;;;;;;;16.58;11.40;;;;;;;;;;5041072;28;20922;-69
2023/12/08 00:54:49;;;;;;;17.67;11.50;;;;;;;;;;5049931;28;20463;-69
2023/12/08 00:57:16;;;;;;;16.55;11.02;;;;;;;;;;5056113;28;20468;-69
2023/12/08 00:59:43;;;;;;;14.80;10.18;;;;;;;;;;5051065;28;20436;-69
2023/12/08 01:02:10;;;;;;;16.38;11.25;;;;;;;;;;5048042;28;20496;-70
2023/12/08 01:04:37;;;;;;;16.38;10.75;;;;;;;;;;5059681;28;20432;-70
2023/12/08 01:07:05;;;;;;;16.27;11.00;;;;;;;;;;5040134;28;20433;-70
2023/12/08 01:09:32;;;;;;;16.60;11.10;;;;;;;;;;5045955;28;20435;-69
2023/12/08 01:11:59;;;;;;;16.00;11.05;;;;;;;;;;5043278;28;20903;-70
2023/12/08 01:14:26;;;;;;;15.57;10.43;;;;;;;;;;5051682;28;20435;-70
2023/12/08 01:16:53;;;;;;;17.05;11.55;;;;;;;;;;5053105;28;20433;-70
2023/12/08 01:19:20;;;;;;;15.85;10.27;;;;;;;;;;5043145;28;20457;-68
2023/12/08 01:21:48;;;;;;;14.65;10.45;;;;;;;;;;5046150;28;20438;-68
2023/12/08 01:24:15;;;;;;;15.40;10.55;;;;;;;;;;5032544;28;20482;-69
2023/12/08 01:26:43;;;;;;;14.27;10.57;;;;;;;;;;5042794;28;20433;-69
2023/12/08 01:29:11;;;;;;;16.02;10.75;;;;;;;;;;5047972;28;20458;-68
2023/12/08 01:31:39;;;;;;;17.38;11.35;;;;;;;;;;5029098;28;20433;-68
2023/12/08 01:34:06;;;;;;;19.77;11.93;;;;;;;;;;5045331;28;20437;-69
2023/12/08 01:36:34;;;;;;;17.92;12.27;;;;;;;;;;5052168;28;20545;-69
2023/12/08 01:39:10;;;;;;;19.38;12.30;;;;;;;;;;5031292;28;20473;-68
2023/12/08 01:41:38;;;;;;;21.70;12.90;;;;;;;;;;5041571;28;20505;-69
2023/12/08 01:44:05;;;;;;;20.25;12.20;;;;;;;;;;5041332;28;20468;-69
2023/12/08 01:46:32;;;;;;;20.25;12.60;;;;;;;;;;5048517;28;20429;-69
2023/12/08 01:48:59;;;;;;;20.77;11.60;;;;;;;;;;5037718;28;20521;-68
2023/12/08 01:51:28;;;;;;;21.10;13.25;;;;;;;;;;5049461;28;20516;-69
2023/12/08 01:53:55;;;;;;;17.50;11.50;;;;;;;;;;5042997;28;20906;-69
2023/12/08 01:56:23;;;;;;;17.60;11.43;;;;;;;;;;5049203;28;20433;-69
2023/12/08 01:58:50;;;;;;;17.38;11.23;;;;;;;;;;5049161;28;20947;-69
2023/12/08 02:01:18;;;;;;;16.48;11.63;;;;;;;;;;5047043;28;20468;-68
2023/12/08 02:03:48;;;;;;;17.98;11.63;;;;;;;;;;5045200;28;20504;-69
2023/12/08 02:06:17;;;;;;;16.25;10.77;;;;;;;;;;5040463;28;20448;-68
2023/12/08 02:08:46;;;;;;;16.25;10.77;;;;;;;;;;5037941;28;20809;-69
2023/12/08 02:11:14;;;;;;;16.70;10.77;;;;;;;;;;5051505;28;20526;-68
2023/12/08 02:13:44;;;;;;;17.52;11.30;;;;;;;;;;5038335;28;20939;-68
2023/12/08 02:16:16;;;;;;;17.38;11.57;;;;;;;;;;5046239;28;20437;-69
2023/12/08 02:18:44;;;;;;;15.82;11.15;;;;;;;;;;5048464;28;20468;-69
2023/12/08 02:21:13;;;;;;;17.70;11.55;;;;;;;;;;5038493;28;21027;-69
2023/12/08 02:23:42;;;;;;;16.90;10.90;;;;;;;;;;5039446;28;20431;-70
2023/12/08 02:26:10;;;;;;;15.95;11.18;;;;;;;;;;5029616;28;20483;-69
2023/12/08 02:28:37;;;;;;;15.98;11.40;;;;;;;;;;5048078;28;20497;-69
2023/12/08 02:31:06;;;;;;;15.43;10.70;;;;;;;;;;5039298;28;20439;-69
2023/12/08 02:33:36;;;;;;;16.20;10.95;;;;;;;;;;5047842;28;20931;-69
2023/12/08 02:36:06;;;;;;;16.50;10.75;;;;;;;;;;5043584;28;20433;-68
2023/12/08 02:38:33;;;;;;;15.82;10.75;;;;;;;;;;5046206;28;20432;-69
2023/12/08 02:41:01;;;;;;;16.40;10.60;;;;;;;;;;5043473;28;20508;-69
2023/12/08 02:43:28;;;;;;;16.77;10.82;;;;;;;;;;5045791;28;20440;-69
2023/12/08 02:45:55;;;;;;;15.45;11.32;;;;;;;;;;5030580;28;20425;-68
2023/12/08 02:48:22;;;;;;;15.88;11.00;;;;;;;;;;5044531;28;20428;-69
2023/12/08 02:50:51;;;;;;;16.27;10.70;;;;;;;;;;5030964;28;20433;-69
2023/12/08 02:53:18;;;;;;;16.33;11.05;;;;;;;;;;5025168;28;20429;-69
2023/12/08 02:55:45;;;;;;;17.13;11.57;;;;;;;;;;5048358;28;20986;-69
2023/12/08 02:58:12;;;;;;;17.43;11.57;;;;;;;;;;5044596;28;20517;-69
2023/12/08 03:00:39;;;;;;;16.92;11.52;;;;;;;;;;5044321;28;21019;-69
2023/12/08 03:03:07;;;;;;;15.50;10.65;;;;;;;;;;5036833;28;20804;-69
2023/12/08 03:05:34;;;;;;;14.93;10.33;;;;;;;;;;5036691;28;20516;-69
2023/12/08 03:08:01;;;;;;;17.15;10.65;;;;;;;;;;5046010;28;20429;-69
2023/12/08 03:10:28;;;;;;;16.25;11.25;;;;;;;;;;5038729;28;20460;-69
2023/12/08 03:12:55;;;;;;;16.58;10.98;;;;;;;;;;5042794;28;20489;-69
2023/12/08 03:15:23;;;;;;;16.33;11.13;;;;;;;;;;5048887;28;20431;-69
2023/12/08 03:17:50;;;;;;;15.85;10.82;;;;;;;;;;5042959;28;20487;-69
2023/12/08 03:20:17;;;;;;;15.80;11.23;;;;;;;;;;5046268;28;20559;-69
2023/12/08 03:22:44;;;;;;;17.23;11.18;;;;;;;;;;5052181;28;20435;-69
2023/12/08 03:25:11;;;;;;;16.75;11.10;;;;;;;;;;5038989;28;20483;-69
2023/12/08 03:27:39;;;;;;;15.13;11.10;;;;;;;;;;5046946;28;20515;-69
2023/12/08 03:30:06;;;;;;;15.20;10.95;;;;;;;;;;5045613;28;20492;-69
2023/12/08 03:32:33;;;;;;;18.23;11.93;;;;;;;;;;5037990;28;20437;-69
2023/12/08 03:35:01;;;;;;;16.63;10.90;;;;;;;;;;5050332;28;21007;-69
2023/12/08 03:37:28;;;;;;;17.33;11.55;;;;;;;;;;5058294;28;20941;-69
2023/12/08 03:39:55;;;;;;;15.95;11.07;;;;;;;;;;5030452;28;20449;-69
2023/12/08 03:42:22;;;;;;;15.07;11.15;;;;;;;;;;5050076;28;20504;-69
2023/12/08 03:44:50;;;;;;;16.60;11.57;;;;;;;;;;5046014;28;20994;-69
2023/12/08 03:47:18;;;;;;;16.73;11.10;;;;;;;;;;5040309;28;20425;-69
2023/12/08 03:49:46;;;;;;;16.90;11.48;;;;;;;;;;5045849;28;20916;-69
2023/12/08 03:52:13;;;;;;;16.80;10.90;;;;;;;;;;5059653;28;20502;-69
2023/12/08 03:54:40;;;;;;;16.10;11.10;;;;;;;;;;5046036;28;20440;-69
2023/12/08 03:57:07;;;;;;;16.15;11.40;;;;;;;;;;5041346;28;20431;-69
2023/12/08 03:59:35;;;;;;;17.63;11.77;;;;;;;;;;5055581;28;20442;-69
2023/12/08 04:02:02;;;;;;;15.95;11.43;;;;;;;;;;5044921;28;20440;-69
2023/12/08 04:04:30;;;;;;;17.37;11.00;;;;;;;;;;5057112;28;20512;-69
2023/12/08 04:06:57;;;;;;;14.40;10.27;;;;;;;;;;5050066;28;20529;-69
2023/12/08 04:09:24;;;;;;;15.65;11.07;;;;;;;;;;5059387;28;20923;-69
2023/12/08 04:11:55;;;;;;;17.25;12.13;;;;;;;;;;5052116;28;20528;-69
2023/12/08 04:14:22;;;;;;;16.90;11.02;;;;;;;;;;5056446;28;20444;-69
2023/12/08 04:16:52;;;;;;;18.07;11.67;;;;;;;;;;5046554;28;20468;-69
2023/12/08 04:19:20;;;;;;;16.48;11.70;;;;;;;;;;5050599;28;20436;-69
2023/12/08 04:21:47;;;;;;;19.08;12.27;;;;;;;;;;5051837;28;20483;-69
2023/12/08 04:24:14;;;;;;;18.10;12.10;;;;;;;;;;5046545;28;20437;-69
2023/12/08 04:26:45;;;;;;;17.45;11.45;;;;;;;;;;5047454;28;20925;-69
2023/12/08 04:29:12;;;;;;;17.83;12.32;;;;;;;;;;5050648;28;20453;-69
2023/12/08 04:31:39;;;;;;;16.80;12.03;;;;;;;;;;5054777;28;20513;-68
2023/12/08 04:34:06;;;;;;;17.38;11.63;;;;;;;;;;5035852;28;20520;-68
2023/12/08 04:36:34;;;;;;;17.30;12.23;;;;;;;;;;5035514;28;20502;-70
2023/12/08 04:39:01;;;;;;;18.50;12.80;;;;;;;;;;5048077;28;20900;-69
2023/12/08 04:41:28;;;;;;;18.85;12.52;;;;;;;;;;5048322;28;20521;-69
2023/12/08 04:43:56;;;;;;;18.52;12.35;;;;;;;;;;5046725;28;20429;-69
2023/12/08 04:46:24;;;;;;;20.77;13.60;;;;;;;;;;5039672;28;22271;-69
2023/12/08 04:48:51;;;;;;;20.00;13.35;;;;;;;;;;5059224;28;20428;-69
2023/12/08 04:51:19;;;;;;;18.75;13.27;;;;;;;;;;5049499;28;20444;-68
2023/12/08 04:53:46;;;;;;;21.60;13.97;;;;;;;;;;5049161;28;20447;-69
2023/12/08 04:56:13;;;;;;;20.45;13.18;;;;;;;;;;5049021;28;20932;-68
2023/12/08 04:58:41;;;;;;;22.08;14.10;;;;;;;;;;5049267;28;20433;-68
2023/12/08 05:01:12;;;;;;;22.27;13.98;;;;;;;;;;5047534;28;20429;-68
2023/12/08 05:03:39;;;;;;;22.23;14.43;;;;;;;;;;5030968;28;20425;-69
2023/12/08 05:06:07;;;;;;;23.05;14.50;;;;;;;;;;5050235;28;20429;-69
2023/12/08 05:08:34;;;;;;;23.00;14.05;;;;;;;;;;5046634;28;20457;-69
2023/12/08 05:11:02;;;;;;;24.30;14.43;;;;;;;;;;5032654;28;20460;-69
2023/12/08 05:13:29;;;;;;;22.42;14.77;;;;;;;;;;5048710;28;20506;-69
2023/12/08 05:15:56;;;;;;;24.48;14.45;;;;;;;;;;5039203;28;20434;-69
2023/12/08 05:18:23;;;;;;;23.53;15.13;;;;;;;;;;5048330;28;20437;-70
2023/12/08 05:20:50;;;;;;;23.50;15.10;;;;;;;;;;5050146;28;20433;-69
2023/12/08 05:23:18;;;;;;;20.90;14.30;;;;;;;;;;5028114;28;20481;-70
2023/12/08 05:25:45;;;;;;;22.50;14.70;;;;;;;;;;5036436;28;20425;-69
2023/12/08 05:28:12;;;;;;;22.90;14.98;;;;;;;;;;5047090;28;20433;-69
2023/12/08 05:30:39;;;;;;;23.58;14.80;;;;;;;;;;5043439;28;20448;-70
2023/12/08 05:33:07;;;;;;;23.90;14.27;;;;;;;;;;5026208;28;20426;-70
2023/12/08 05:35:34;;;;;;;26.17;16.25;;;;;;;;;;5033602;28;20439;-70
2023/12/08 05:38:02;;;;;;;26.50;15.63;;;;;;;;;;5025426;28;20502;-70
2023/12/08 05:40:29;;;;;;;24.33;15.63;;;;;;;;;;5034775;28;20529;-70
2023/12/08 05:42:56;;;;;;;24.75;15.52;;;;;;;;;;5039989;28;20434;-69
2023/12/08 05:45:23;;;;;;;29.42;16.75;;;;;;;;;;5044103;28;20518;-69
2023/12/08 05:47:51;;;;;;;26.93;15.70;;;;;;;;;;5030765;28;20615;-69
2023/12/08 05:50:18;;;;;;;29.42;16.17;;;;;;;;;;5037820;28;20823;-70
2023/12/08 05:52:46;;;;;;;28.60;16.23;;;;;;;;;;5038737;28;20950;-69
2023/12/08 05:55:13;;;;;;;27.25;16.05;;;;;;;;;;5045168;28;20524;-69
2023/12/08 05:57:40;;;;;;;31.20;16.42;;;;;;;;;;5038344;28;20444;-69
2023/12/08 06:00:11;;;;;;;26.27;14.98;;;;;;;;;;5030449;28;20429;-69
2023/12/08 06:02:38;;;;;;;28.45;16.00;;;;;;;;;;5033427;28;20453;-69
2023/12/08 06:05:06;;;;;;;29.58;15.23;;;;;;;;;;5038827;28;20429;-68
2023/12/08 06:07:33;;;;;;;24.83;14.55;;;;;;;;;;5040758;28;20487;-69
2023/12/08 06:10:01;;;;;;;26.73;15.60;;;;;;;;;;5031015;28;20868;-68
2023/12/08 06:12:28;;;;;;;26.50;15.07;;;;;;;;;;5044305;28;20437;-69
2023/12/08 06:14:59;;;;;;;28.20;15.13;;;;;;;;;;5041162;28;20528;-68
2023/12/08 06:17:27;;;;;;;27.10;15.90;;;;;;;;;;5037640;28;20437;-68
2023/12/08 06:19:55;;;;;;;27.17;14.95;;;;;;;;;;5036361;28;20545;-69
2023/12/08 06:22:22;;;;;;;26.85;16.98;;;;;;;;;;5036722;28;20537;-69
2023/12/08 06:24:49;;;;;;;27.50;15.70;;;;;;;;;;5042888;28;20458;-68
2023/12/08 06:27:16;;;;;;;30.13;16.35;;;;;;;;;;5033994;28;20540;-69
2023/12/08 06:29:44;;;;;;;29.77;17.33;;;;;;;;;;5034019;28;20490;-68
2023/12/08 06:32:11;;;;;;;29.80;17.02;;;;;;;;;;5038346;28;20443;-68
2023/12/08 06:34:38;;;;;;;39.03;19.47;;;;;;;;;;5038748;28;20847;-68
2023/12/08 06:37:06;;;;;;;55.10;25.30;;;;;;;;;;5038041;28;20429;-68
2023/12/08 06:39:33;;;;;;;51.13;23.33;;;;;;;;;;5039857;28;20427;-68
2023/12/08 06:42:00;;;;;;;61.17;26.80;;;;;;;;;;5041687;28;20773;-69
2023/12/08 06:44:29;;;;;;;51.42;23.58;;;;;;;;;;5034675;28;20438;-68
2023/12/08 06:46:56;;;;;;;55.13;24.15;;;;;;;;;;5021620;28;20437;-68
2023/12/08 06:49:23;;;;;;;58.40;25.10;;;;;;;;;;5033406;28;20517;-68
2023/12/08 06:51:51;;;;;;;64.67;28.30;;;;;;;;;;5015902;28;20425;-68
2023/12/08 06:54:18;;;;;;;74.18;31.00;;;;;;;;;;5032170;28;20492;-68
2023/12/08 06:56:46;;;;;;;90.22;33.92;;;;;;;;;;5039309;28;20490;-68
2023/12/08 06:59:14;;;;;;;95.27;36.53;;;;;;;;;;5037426;28;20544;-68
2023/12/08 07:01:41;;;;;;;65.60;29.80;;;;;;;;;;5033905;28;20432;-67
2023/12/08 07:04:09;;;;;;;56.23;27.60;;;;;;;;;;5042771;28;20493;-67
2023/12/08 07:06:37;;;;;;;52.22;25.65;;;;;;;;;;5028592;28;20483;-67
2023/12/08 07:09:05;;;;;;;60.13;29.73;;;;;;;;;;5032675;28;20424;-67
2023/12/08 07:11:32;;;;;;;51.72;28.65;;;;;;;;;;5034172;28;20515;-67
2023/12/08 07:13:59;;;;;;;50.50;26.25;;;;;;;;;;5043200;28;20516;-67
2023/12/08 07:16:27;;;;;;;51.20;28.75;;;;;;;;;;5042873;28;20444;-67
2023/12/08 07:18:54;;;;;;;45.65;25.52;;;;;;;;;;5035809;28;20437;-67
2023/12/08 07:21:24;;;;;;;39.70;22.33;;;;;;;;;;5041441;28;20978;-67
2023/12/08 07:23:52;;;;;;;36.13;19.87;;;;;;;;;;5043528;28;20990;-69
2023/12/08 07:26:19;;;;;;;35.65;19.58;;;;;;;;;;5038253;28;20421;-67
2023/12/08 07:28:46;;;;;;;38.47;20.33;;;;;;;;;;5041494;28;20603;-67
2023/12/08 07:31:13;;;;;;;40.38;20.35;;;;;;;;;;5042009;28;20541;-67
2023/12/08 07:33:41;;;;;;;42.38;20.75;;;;;;;;;;5036937;28;20437;-67
2023/12/08 07:36:08;;;;;;;42.83;21.27;;;;;;;;;;5045773;28;20423;-67
2023/12/08 07:38:36;;;;;;;42.30;20.17;;;;;;;;;;5067174;28;20432;-67
2023/12/08 07:41:03;;;;;;;39.15;19.38;;;;;;;;;;5040242;28;20506;-67
2023/12/08 07:43:30;;;;;;;36.33;19.42;;;;;;;;;;5038490;28;20427;-67
2023/12/08 07:45:57;;;;;;;37.42;19.10;;;;;;;;;;5044885;28;20463;-67
2023/12/08 07:48:25;;;;;;;34.20;17.45;;;;;;;;;;5048871;28;20431;-67
2023/12/08 07:50:52;;;;;;;38.27;19.27;;;;;;;;;;5036204;28;20911;-67
2023/12/08 07:53:19;;;;;;;39.15;19.67;;;;;;;;;;5051779;28;20435;-67
2023/12/08 07:55:46;;;;;;;39.88;20.38;;;;;;;;;;5045867;28;20852;-67
2023/12/08 07:58:14;;;;;;;37.33;18.75;;;;;;;;;;5045456;28;20475;-67
2023/12/08 08:00:42;;;;;;;32.42;17.85;;;;;;;;;;5035043;28;20446;-68
2023/12/08 08:03:10;;;;;;;35.50;18.55;;;;;;;;;;5023080;28;20441;-68
2023/12/08 08:05:37;;;;;;;33.63;18.67;;;;;;;;;;5043161;28;20433;-68
2023/12/08 08:08:05;;;;;;;35.08;19.20;;;;;;;;;;5046156;28;20424;-68
2023/12/08 08:10:33;;;;;;;28.98;17.23;;;;;;;;;;5049642;28;20824;-68
2023/12/08 08:13:00;;;;;;;31.73;17.70;;;;;;;;;;5029806;28;21155;-68
2023/12/08 08:15:27;;;;;;;30.30;17.10;;;;;;;;;;5034779;28;20449;-68
2023/12/08 08:17:55;;;;;;;32.40;18.73;;;;;;;;;;5032157;28;20449;-68
2023/12/08 08:20:22;;;;;;;30.52;17.48;;;;;;;;;;5037762;28;20492;-68
2023/12/08 08:22:50;;;;;;;29.73;17.67;;;;;;;;;;5041439;28;20749;-69
2023/12/08 08:25:17;;;;;;;30.17;18.63;;;;;;;;;;5048476;28;20469;-68
2023/12/08 08:27:44;;;;;;;33.73;18.33;;;;;;;;;;5050042;28;20481;-68
2023/12/08 08:30:11;;;;;;;34.45;18.27;;;;;;;;;;5055926;28;20795;-68
2023/12/08 08:32:39;;;;;;;30.63;18.38;;;;;;;;;;5047934;28;20952;-68
2023/12/08 08:35:06;;;;;;;31.48;18.77;;;;;;;;;;5060878;28;20438;-68
2023/12/08 08:37:34;;;;;;;33.95;19.25;;;;;;;;;;5050394;28;20921;-68
2023/12/08 08:40:01;;;;;;;30.80;18.25;;;;;;;;;;5061799;28;20462;-69
2023/12/08 08:42:28;;;;;;;32.22;18.20;;;;;;;;;;5036249;28;20900;-68
2023/12/08 08:44:55;;;;;;;32.33;18.38;;;;;;;;;;5026599;28;20437;-68
2023/12/08 08:47:23;;;;;;;32.33;19.00;;;;;;;;;;5055627;28;20419;-68
2023/12/08 08:49:50;;;;;;;30.23;18.05;;;;;;;;;;5048363;28;20432;-68
2023/12/08 08:52:18;;;;;;;30.60;18.63;;;;;;;;;;5048830;28;20426;-68
2023/12/08 08:54:46;;;;;;;31.15;17.75;;;;;;;;;;5048949;28;20538;-68
2023/12/08 08:57:13;;;;;;;31.83;17.83;;;;;;;;;;5069862;28;20435;-68
2023/12/08 08:59:41;;;;;;;34.33;18.13;;;;;;;;;;5058664;28;20512;-68
2023/12/08 09:02:08;;;;;;;33.80;19.10;;;;;;;;;;5047236;28;20429;-68
2023/12/08 09:04:35;;;;;;;30.15;17.70;;;;;;;;;;5044961;28;20981;-68
2023/12/08 09:07:02;;;;;;;29.90;18.00;;;;;;;;;;5051158;28;20806;-68
2023/12/08 09:09:30;;;;;;;31.08;18.30;;;;;;;;;;5061790;28;20417;-68
2023/12/08 09:11:57;;;;;;;26.17;16.20;;;;;;;;;;5070749;28;20428;-68
2023/12/08 09:14:25;;;;;;;30.45;17.33;;;;;;;;;;5061601;28;20481;-68
2023/12/08 09:16:52;;;;;;;31.23;17.98;;;;;;;;;;5070484;28;20456;-68
2023/12/08 09:19:19;;;;;;;29.92;17.55;;;;;;;;;;5056560;28;20487;-68
2023/12/08 09:21:47;;;;;;;28.48;17.73;;;;;;;;;;5034171;28;20433;-68
2023/12/08 09:24:21;;;;;;;31.25;18.70;;;;;;;;;;5058288;28;20423;-68
2023/12/08 09:26:48;;;;;;;30.95;17.48;;;;;;;;;;5070330;28;20484;-68
2023/12/08 09:29:15;;;;;;;27.70;16.77;;;;;;;;;;5069058;28;20424;-68
2023/12/08 09:31:43;;;;;;;31.07;17.97;;;;;;;;;;5058089;28;20424;-68
2023/12/08 09:34:11;;;;;;;31.60;17.98;;;;;;;;;;5056079;28;20441;-68
2023/12/08 09:36:38;;;;;;;34.33;18.73;;;;;;;;;;5057414;28;20436;-69
2023/12/08 09:39:08;;;;;;;30.73;17.85;;;;;;;;;;5046115;28;20441;-68
2023/12/08 09:41:37;;;;;;;31.70;18.70;;;;;;;;;;5055122;28;20915;-68
2023/12/08 09:44:14;;;;;;;31.30;17.73;;;;;;;;;;5058264;28;20487;-69
2023/12/08 09:46:46;;;;;;;30.80;17.70;;;;;;;;;;5049954;28;20449;-68
2023/12/08 09:49:24;;;;;;;33.83;18.73;;;;;;;;;;5065372;28;20470;-69
2023/12/08 09:51:51;;;;;;;34.17;18.85;;;;;;;;;;5069903;28;20431;-69
2023/12/08 09:54:19;;;;;;;32.07;18.53;;;;;;;;;;5061699;28;20963;-68
2023/12/08 09:56:54;;;;;;;28.27;17.75;;;;;;;;;;5046147;28;21130;-68
2023/12/08 09:59:23;;;;;;;29.95;17.92;;;;;;;;;;5052314;28;20432;-68
2023/12/08 10:01:50;;;;;;;34.53;18.60;;;;;;;;;;5045970;28;20559;-70
2023/12/08 10:04:18;;;;;;;30.83;18.15;;;;;;;;;;5032300;28;20466;-69
2023/12/08 10:06:45;;;;;;;32.25;18.85;;;;;;;;;;5052373;28;20427;-68
2023/12/08 10:09:14;;;;;;;32.42;18.30;;;;;;;;;;5047373;28;20429;-68
2023/12/08 10:11:44;;;;;;;29.95;17.15;;;;;;;;;;5039723;28;21151;-68
2023/12/08 10:14:12;;;;;;;28.58;16.65;;;;;;;;;;5050238;28;20428;-68
2023/12/08 10:16:39;;;;;;;33.92;17.75;;;;;;;;;;5049866;28;20429;-68
2023/12/08 10:19:07;;;;;;;40.25;20.52;;;;;;;;;;5048970;28;20439;-68
2023/12/08 10:21:35;;;;;;;32.80;17.70;;;;;;;;;;5057042;28;20903;-68
2023/12/08 10:24:05;;;;;;;32.97;16.77;;;;;;;;;;5054674;28;20807;-68
2023/12/08 10:26:33;;;;;;;31.73;17.63;;;;;;;;;;5060498;28;20424;-68
2023/12/08 10:29:01;;;;;;;29.23;17.67;;;;;;;;;;5063884;28;20432;-68
2023/12/08 10:31:28;;;;;;;28.85;16.83;;;;;;;;;;5041885;28;20460;-68
2023/12/08 10:33:55;;;;;;;33.53;18.40;;;;;;;;;;5061851;28;20431;-68
2023/12/08 10:36:23;;;;;;;28.95;16.95;;;;;;;;;;5066515;28;20427;-68
2023/12/08 10:38:50;;;;;;;29.48;17.80;;;;;;;;;;5054966;28;20945;-67
2023/12/08 10:41:17;;;;;;;27.55;16.85;;;;;;;;;;5068402;28;20530;-68
2023/12/08 10:43:45;;;;;;;26.98;17.15;;;;;;;;;;5056624;28;20432;-68
2023/12/08 10:46:13;;;;;;;26.52;15.80;;;;;;;;;;5063422;28;20423;-68
2023/12/08 10:48:40;;;;;;;26.17;16.20;;;;;;;;;;5043142;28;20438;-68
2023/12/08 10:51:13;;;;;;;27.33;16.25;;;;;;;;;;5067270;28;20441;-68
2023/12/08 10:53:41;;;;;;;27.67;16.70;;;;;;;;;;5057784;28;20426;-68
2023/12/08 10:56:12;;;;;;;25.20;16.73;;;;;;;;;;5048860;28;20433;-68
2023/12/08 10:58:42;;;;;;;25.75;15.80;;;;;;;;;;5056453;28;20485;-68
2023/12/08 11:01:12;;;;;;;30.50;17.38;;;;;;;;;;5036290;28;20438;-68
2023/12/08 11:03:43;;;;;;;27.67;16.70;;;;;;;;;;5049444;28;20482;-68
2023/12/08 11:06:28;;;;;;;26.48;16.63;;;;;;;;;;5056180;28;20902;-68
2023/12/08 11:08:57;;;;;;;25.65;16.77;;;;;;;;;;5048147;28;20425;-69
2023/12/08 11:11:26;;;;;;;26.35;16.30;;;;;;;;;;5048675;28;20475;-68
2023/12/08 11:13:58;;;;;;;25.92;15.50;;;;;;;;;;5028458;28;20448;-68
2023/12/08 11:16:34;;;;;;;26.92;16.08;;;;;;;;;;5048779;28;20500;-68
2023/12/08 11:19:01;;;;;;;28.92;16.67;;;;;;;;;;5040654;28;20441;-69
2023/12/08 11:21:29;;;;;;;28.63;16.63;;;;;;;;;;5040313;28;20430;-69
2023/12/08 11:23:56;;;;;;;30.75;17.08;;;;;;;;;;5055837;28;20433;-69
2023/12/08 11:26:23;;;;;;;29.33;17.13;;;;;;;;;;5027088;28;20446;-69
2023/12/08 11:29:04;;;;;;;28.88;16.23;;;;;;;;;;5055580;28;20931;-69
2023/12/08 11:31:31;;;;;;;26.70;17.33;;;;;;;;;;5030111;28;20430;-69
2023/12/08 11:34:10;;;;;;;27.65;16.67;;;;;;;;;;5039069;28;20485;-69
2023/12/08 11:36:43;;;;;;;29.98;17.08;;;;;;;;;;5062475;28;20526;-69
2023/12/08 11:39:29;;;;;;;29.90;17.27;;;;;;;;;;5040585;28;20511;-69
2023/12/08 11:41:56;;;;;;;27.75;16.45;;;;;;;;;;5049031;28;20508;-69
2023/12/08 11:44:24;;;;;;;31.50;17.48;;;;;;;;;;5055535;28;21068;-69
2023/12/08 11:46:52;;;;;;;30.63;17.42;;;;;;;;;;5064156;28;20429;-69
2023/12/08 11:49:19;;;;;;;29.42;17.08;;;;;;;;;;5054601;28;20462;-69
2023/12/08 11:52:05;;;;;;;30.75;16.80;;;;;;;;;;5056648;28;20436;-69
2023/12/08 11:54:55;;;;;;;33.80;18.05;;;;;;;;;;5067494;28;20427;-69
2023/12/08 11:57:36;;;;;;;35.05;18.38;;;;;;;;;;5057938;28;20510;-69
2023/12/08 12:00:07;;;;;;;35.28;19.00;;;;;;;;;;5050079;28;20439;-69
2023/12/08 12:02:34;;;;;;;37.33;19.37;;;;;;;;;;5044314;28;20465;-69
2023/12/08 12:05:02;;;;;;;42.60;19.50;;;;;;;;;;5059966;28;20425;-69
2023/12/08 12:07:30;;;;;;;44.67;19.13;;;;;;;;;;5067821;28;20435;-69
2023/12/08 12:09:57;;;;;;;40.58;19.27;;;;;;;;;;5041276;28;20483;-69
2023/12/08 12:12:30;;;;;;;41.07;20.20;;;;;;;;;;5052873;28;20905;-69
2023/12/08 12:14:59;;;;;;;42.65;19.92;;;;;;;;;;5044177;28;20500;-69
2023/12/08 12:17:27;;;;;;;39.87;19.37;;;;;;;;;;5059777;28;20433;-69
2023/12/08 12:19:55;;;;;;;42.00;20.45;;;;;;;;;;5062955;28;20455;-70
2023/12/08 12:22:23;;;;;;;42.15;20.67;;;;;;;;;;5048870;28;20466;-69
2023/12/08 12:24:50;;;;;;;38.72;19.58;;;;;;;;;;5069798;28;20454;-69
2023/12/08 12:27:17;;;;;;;40.58;19.65;;;;;;;;;;5063311;28;20455;-69
2023/12/08 12:29:46;;;;;;;38.08;19.50;;;;;;;;;;5061358;28;20504;-69
2023/12/08 12:32:14;;;;;;;42.25;19.45;;;;;;;;;;5027684;28;20512;-70
2023/12/08 12:34:41;;;;;;;34.85;19.38;;;;;;;;;;5057414;28;20428;-69
2023/12/08 12:37:08;;;;;;;37.97;19.00;;;;;;;;;;5051562;28;20436;-69
2023/12/08 12:39:36;;;;;;;39.33;19.80;;;;;;;;;;5049077;28;20461;-69
2023/12/08 12:42:06;;;;;;;36.88;20.00;;;;;;;;;;5066686;28;20469;-69
2023/12/08 12:44:40;;;;;;;36.83;19.97;;;;;;;;;;5058712;28;20951;-69
2023/12/08 12:47:10;;;;;;;37.50;20.13;;;;;;;;;;5029756;28;20427;-69
2023/12/08 12:49:44;;;;;;;39.33;20.10;;;;;;;;;;5047675;28;20831;-69
2023/12/08 12:52:28;;;;;;;37.35;19.88;;;;;;;;;;5052818;28;20453;-69
2023/12/08 12:54:55;;;;;;;39.47;20.42;;;;;;;;;;5017843;28;20796;-70
2023/12/08 12:57:41;;;;;;;36.60;19.85;;;;;;;;;;5040742;28;20553;-70
2023/12/08 13:00:09;;;;;;;35.85;20.25;;;;;;;;;;5048796;28;20435;-70
2023/12/08 13:02:37;;;;;;;31.38;18.15;;;;;;;;;;5060618;28;20852;-70
2023/12/08 13:05:07;;;;;;;36.47;19.55;;;;;;;;;;5063172;28;20434;-70
2023/12/08 13:07:35;;;;;;;33.30;19.15;;;;;;;;;;5053216;28;20464;-70
2023/12/08 13:10:06;;;;;;;38.00;20.40;;;;;;;;;;5070381;28;20427;-68
2023/12/08 13:12:34;;;;;;;42.35;20.52;;;;;;;;;;5053199;28;20513;-68
2023/12/08 13:15:01;;;;;;;37.03;20.08;;;;;;;;;;5036593;28;20455;-68
2023/12/08 13:17:33;;;;;;;42.15;20.67;;;;;;;;;;5063368;28;20431;-68
2023/12/08 13:20:00;;;;;;;40.00;21.17;;;;;;;;;;5061594;28;20435;-68
2023/12/08 13:22:27;;;;;;;42.40;21.20;;;;;;;;;;5070412;28;20442;-69
2023/12/08 13:24:54;;;;;;;42.60;20.83;;;;;;;;;;5053245;28;20926;-69
2023/12/08 13:27:21;;;;;;;42.42;21.65;;;;;;;;;;5026405;28;20485;-69
2023/12/08 13:29:49;;;;;;;49.05;22.35;;;;;;;;;;5045591;28;20931;-69
2023/12/08 13:32:16;;;;;;;42.60;21.65;;;;;;;;;;5055842;28;20423;-69
2023/12/08 13:34:44;;;;;;;44.13;21.20;;;;;;;;;;5031897;28;20434;-69
2023/12/08 13:37:11;;;;;;;37.08;19.80;;;;;;;;;;5057310;28;20822;-69
2023/12/08 13:39:38;;;;;;;44.40;20.53;;;;;;;;;;5057512;28;20510;-69
2023/12/08 13:42:06;;;;;;;42.45;20.95;;;;;;;;;;5058503;28;20448;-69
2023/12/08 13:44:33;;;;;;;43.80;22.17;;;;;;;;;;5027675;28;20429;-69
2023/12/08 13:47:01;;;;;;;45.80;20.42;;;;;;;;;;5031878;28;20813;-69
2023/12/08 13:49:28;;;;;;;42.88;20.45;;;;;;;;;;5057782;28;20425;-69
2023/12/08 13:51:56;;;;;;;44.67;21.73;;;;;;;;;;5069017;28;20434;-70
2023/12/08 13:54:23;;;;;;;40.97;20.65;;;;;;;;;;5050347;28;20431;-69
2023/12/08 13:56:50;;;;;;;43.67;22.08;;;;;;;;;;5012906;28;20440;-69
2023/12/08 13:59:17;;;;;;;40.88;19.88;;;;;;;;;;5034849;28;20430;-70
2023/12/08 14:01:45;;;;;;;45.75;21.42;;;;;;;;;;5041922;28;20905;-69
2023/12/08 14:04:12;;;;;;;43.88;20.35;;;;;;;;;;5054624;28;20436;-69
2023/12/08 14:06:39;;;;;;;45.38;21.02;;;;;;;;;;5060797;28;21009;-69
2023/12/08 14:09:09;;;;;;;43.45;19.23;;;;;;;;;;5054243;28;20916;-69
2023/12/08 14:11:37;;;;;;;46.78;20.77;;;;;;;;;;5031410;28;20460;-69
2023/12/08 14:14:04;;;;;;;41.78;19.85;;;;;;;;;;5030464;28;20510;-69
2023/12/08 14:16:31;;;;;;;43.85;20.08;;;;;;;;;;5041789;28;20947;-69
2023/12/08 14:18:58;;;;;;;42.38;19.42;;;;;;;;;;5050789;28;20454;-70
2023/12/08 14:21:26;;;;;;;49.30;20.58;;;;;;;;;;5046185;28;20430;-69